sensor_id;sensor_type;location;lat;lon;timestamp;pressure;altitude;pressure_sealevel;temperature
68952;BMP180;56000;51.146;17.112;2022-11-20T00:01:34;99912.60;;;-3.52
68952;BMP180;56000;51.146;17.112;2022-11-20T00:04:04;99908.00;;;-3.60
68952;BMP180;56000;51.146;17.112;2022-11-20T00:06:33;99905.60;;;-3.60
68952;BMP180;56000;51.146;17.112;2022-11-20T00:09:02;99909.00;;;-3.60
68952;BMP180;56000;51.146;17.112;2022-11-20T00:11:32;99907.00;;;-3.60
68952;BMP180;56000;51.146;17.112;2022-11-20T00:14:03;99909.00;;;-3.66
68952;BMP180;56000;51.146;17.112;2022-11-20T00:16:33;99898.20;;;-3.70
68952;BMP180;56000;51.146;17.112;2022-11-20T00:19:01;99901.40;;;-3.70
68952;BMP180;56000;51.146;17.112;2022-11-20T00:21:31;99905.40;;;-3.70
68952;BMP180;56000;51.146;17.112;2022-11-20T00:24:00;99909.00;;;-3.70
68952;BMP180;56000;51.146;17.112;2022-11-20T00:26:29;99906.00;;;-3.70
68952;BMP180;56000;51.146;17.112;2022-11-20T00:29:00;99908.20;;;-3.70
68952;BMP180;56000;51.146;17.112;2022-11-20T00:31:31;99906.20;;;-3.70
68952;BMP180;56000;51.146;17.112;2022-11-20T00:34:01;99912.40;;;-3.66
68952;BMP180;56000;51.146;17.112;2022-11-20T00:36:34;99911.00;;;-3.66
68952;BMP180;56000;51.146;17.112;2022-11-20T00:39:03;99911.60;;;-3.70
68952;BMP180;56000;51.146;17.112;2022-11-20T00:41:32;99912.80;;;-3.72
68952;BMP180;56000;51.146;17.112;2022-11-20T00:44:02;99910.60;;;-3.80
68952;BMP180;56000;51.146;17.112;2022-11-20T00:46:31;99910.60;;;-3.90
68952;BMP180;56000;51.146;17.112;2022-11-20T00:49:00;99913.00;;;-3.98
68952;BMP180;56000;51.146;17.112;2022-11-20T00:51:29;99912.00;;;-4.00
68952;BMP180;56000;51.146;17.112;2022-11-20T00:53:59;99918.00;;;-4.08
68952;BMP180;56000;51.146;17.112;2022-11-20T00:56:30;99918.80;;;-4.10
68952;BMP180;56000;51.146;17.112;2022-11-20T00:59:01;99925.60;;;-4.10
68952;BMP180;56000;51.146;17.112;2022-11-20T01:01:30;99927.00;;;-4.10
68952;BMP180;56000;51.146;17.112;2022-11-20T01:04:00;99926.60;;;-4.12
68952;BMP180;56000;51.146;17.112;2022-11-20T01:06:31;99928.40;;;-4.18
68952;BMP180;56000;51.146;17.112;2022-11-20T01:09:04;99925.80;;;-4.20
68952;BMP180;56000;51.146;17.112;2022-11-20T01:11:36;99930.80;;;-4.20
68952;BMP180;56000;51.146;17.112;2022-11-20T01:14:10;99927.60;;;-4.20
68952;BMP180;56000;51.146;17.112;2022-11-20T01:16:41;99924.00;;;-4.20
68952;BMP180;56000;51.146;17.112;2022-11-20T01:19:14;99922.20;;;-4.20
68952;BMP180;56000;51.146;17.112;2022-11-20T01:21:49;99923.60;;;-4.20
68952;BMP180;56000;51.146;17.112;2022-11-20T01:24:21;99927.80;;;-4.20
68952;BMP180;56000;51.146;17.112;2022-11-20T01:26:51;99933.40;;;-4.20
68952;BMP180;56000;51.146;17.112;2022-11-20T01:29:23;99928.80;;;-4.20
68952;BMP180;56000;51.146;17.112;2022-11-20T01:31:53;99928.80;;;-4.20
68952;BMP180;56000;51.146;17.112;2022-11-20T01:34:23;99924.00;;;-4.20
68952;BMP180;56000;51.146;17.112;2022-11-20T01:36:54;99919.20;;;-4.20
68952;BMP180;56000;51.146;17.112;2022-11-20T01:39:25;99915.80;;;-4.20
68952;BMP180;56000;51.146;17.112;2022-11-20T01:41:55;99918.20;;;-4.20
68952;BMP180;56000;51.146;17.112;2022-11-20T01:44:54;99921.40;;;-4.20
68952;BMP180;56000;51.146;17.112;2022-11-20T01:47:28;99925.60;;;-4.20
68952;BMP180;56000;51.146;17.112;2022-11-20T01:50:04;99922.40;;;-4.20
68952;BMP180;56000;51.146;17.112;2022-11-20T01:52:38;99922.20;;;-4.20
68952;BMP180;56000;51.146;17.112;2022-11-20T01:55:11;99920.80;;;-4.30
68952;BMP180;56000;51.146;17.112;2022-11-20T01:57:42;99922.80;;;-4.30
68952;BMP180;56000;51.146;17.112;2022-11-20T02:00:17;99913.60;;;-4.30
68952;BMP180;56000;51.146;17.112;2022-11-20T02:02:51;99911.40;;;-4.36
68952;BMP180;56000;51.146;17.112;2022-11-20T02:05:27;99910.20;;;-4.40
68952;BMP180;56000;51.146;17.112;2022-11-20T02:07:58;99907.40;;;-4.40
68952;BMP180;56000;51.146;17.112;2022-11-20T02:10:28;99911.00;;;-4.42
68952;BMP180;56000;51.146;17.112;2022-11-20T02:12:58;99911.80;;;-4.50
68952;BMP180;56000;51.146;17.112;2022-11-20T02:15:45;99915.80;;;-4.50
68952;BMP180;56000;51.146;17.112;2022-11-20T02:18:18;99908.20;;;-4.50
68952;BMP180;56000;51.146;17.112;2022-11-20T02:20:52;99910.00;;;-4.50
68952;BMP180;56000;51.146;17.112;2022-11-20T02:23:26;99908.60;;;-4.54
68952;BMP180;56000;51.146;17.112;2022-11-20T02:25:57;99909.40;;;-4.60
68952;BMP180;56000;51.146;17.112;2022-11-20T02:28:28;99907.80;;;-4.60
68952;BMP180;56000;51.146;17.112;2022-11-20T02:30:57;99905.80;;;-4.60
68952;BMP180;56000;51.146;17.112;2022-11-20T02:33:26;99907.80;;;-4.70
68952;BMP180;56000;51.146;17.112;2022-11-20T02:35:55;99912.00;;;-4.70
68952;BMP180;56000;51.146;17.112;2022-11-20T02:38:24;99912.40;;;-4.70
68952;BMP180;56000;51.146;17.112;2022-11-20T02:40:54;99914.80;;;-4.70
68952;BMP180;56000;51.146;17.112;2022-11-20T02:43:24;99912.80;;;-4.70
68952;BMP180;56000;51.146;17.112;2022-11-20T02:45:53;99918.00;;;-4.70
68952;BMP180;56000;51.146;17.112;2022-11-20T02:48:22;99916.00;;;-4.70
68952;BMP180;56000;51.146;17.112;2022-11-20T02:50:53;99917.20;;;-4.76
68952;BMP180;56000;51.146;17.112;2022-11-20T02:53:22;99913.20;;;-4.80
68952;BMP180;56000;51.146;17.112;2022-11-20T02:55:51;99916.00;;;-4.80
68952;BMP180;56000;51.146;17.112;2022-11-20T02:58:21;99917.40;;;-4.80
68952;BMP180;56000;51.146;17.112;2022-11-20T03:00:52;99920.20;;;-4.80
68952;BMP180;56000;51.146;17.112;2022-11-20T03:03:21;99917.00;;;-4.86
68952;BMP180;56000;51.146;17.112;2022-11-20T03:05:50;99915.00;;;-4.90
68952;BMP180;56000;51.146;17.112;2022-11-20T03:08:19;99912.20;;;-4.90
68952;BMP180;56000;51.146;17.112;2022-11-20T03:10:49;99913.20;;;-4.90
68952;BMP180;56000;51.146;17.112;2022-11-20T03:13:18;99916.80;;;-4.90
68952;BMP180;56000;51.146;17.112;2022-11-20T03:15:47;99914.80;;;-4.90
68952;BMP180;56000;51.146;17.112;2022-11-20T03:18:16;99912.00;;;-4.90
68952;BMP180;56000;51.146;17.112;2022-11-20T03:20:45;99910.00;;;-4.90
68952;BMP180;56000;51.146;17.112;2022-11-20T03:23:14;99909.40;;;-4.90
68952;BMP180;56000;51.146;17.112;2022-11-20T03:25:44;99910.40;;;-4.90
68952;BMP180;56000;51.146;17.112;2022-11-20T03:28:13;99906.80;;;-4.86
68952;BMP180;56000;51.146;17.112;2022-11-20T03:30:42;99906.60;;;-4.90
68952;BMP180;56000;51.146;17.112;2022-11-20T03:33:12;99907.60;;;-4.88
68952;BMP180;56000;51.146;17.112;2022-11-20T03:35:41;99905.80;;;-4.82
68952;BMP180;56000;51.146;17.112;2022-11-20T03:38:10;99906.60;;;-4.86
68952;BMP180;56000;51.146;17.112;2022-11-20T03:40:39;99908.60;;;-4.84
68952;BMP180;56000;51.146;17.112;2022-11-20T03:43:10;99906.20;;;-4.80
68952;BMP180;56000;51.146;17.112;2022-11-20T03:45:39;99909.40;;;-4.80
68952;BMP180;56000;51.146;17.112;2022-11-20T03:48:08;99907.20;;;-4.80
68952;BMP180;56000;51.146;17.112;2022-11-20T03:50:37;99911.60;;;-4.80
68952;BMP180;56000;51.146;17.112;2022-11-20T03:53:06;99913.20;;;-4.80
68952;BMP180;56000;51.146;17.112;2022-11-20T03:55:35;99908.20;;;-4.80
68952;BMP180;56000;51.146;17.112;2022-11-20T03:58:05;99909.80;;;-4.80
68952;BMP180;56000;51.146;17.112;2022-11-20T04:00:34;99908.80;;;-4.80
68952;BMP180;56000;51.146;17.112;2022-11-20T04:03:04;99909.20;;;-4.80
68952;BMP180;56000;51.146;17.112;2022-11-20T04:05:34;99907.80;;;-4.82
68952;BMP180;56000;51.146;17.112;2022-11-20T04:08:03;99910.80;;;-4.90
68952;BMP180;56000;51.146;17.112;2022-11-20T04:10:32;99913.20;;;-4.92
68952;BMP180;56000;51.146;17.112;2022-11-20T04:13:02;99915.40;;;-5.00
68952;BMP180;56000;51.146;17.112;2022-11-20T04:15:31;99913.60;;;-5.08
68952;BMP180;56000;51.146;17.112;2022-11-20T04:18:06;99918.20;;;-5.10
68952;BMP180;56000;51.146;17.112;2022-11-20T04:20:35;99917.60;;;-5.12
68952;BMP180;56000;51.146;17.112;2022-11-20T04:23:05;99921.40;;;-5.20
68952;BMP180;56000;51.146;17.112;2022-11-20T04:25:34;99916.80;;;-5.20
68952;BMP180;56000;51.146;17.112;2022-11-20T04:28:03;99922.60;;;-5.20
68952;BMP180;56000;51.146;17.112;2022-11-20T04:30:32;99923.40;;;-5.16
68952;BMP180;56000;51.146;17.112;2022-11-20T04:33:02;99916.80;;;-5.10
68952;BMP180;56000;51.146;17.112;2022-11-20T04:35:34;99921.40;;;-5.10
68952;BMP180;56000;51.146;17.112;2022-11-20T04:38:04;99914.20;;;-5.10
68952;BMP180;56000;51.146;17.112;2022-11-20T04:40:33;99912.20;;;-5.10
68952;BMP180;56000;51.146;17.112;2022-11-20T04:43:02;99913.20;;;-5.10
68952;BMP180;56000;51.146;17.112;2022-11-20T04:45:31;99909.80;;;-5.10
68952;BMP180;56000;51.146;17.112;2022-11-20T04:48:01;99902.40;;;-5.12
68952;BMP180;56000;51.146;17.112;2022-11-20T04:50:30;99893.20;;;-5.20
68952;BMP180;56000;51.146;17.112;2022-11-20T04:52:59;99893.00;;;-5.20
68952;BMP180;56000;51.146;17.112;2022-11-20T04:55:28;99892.40;;;-5.20
68952;BMP180;56000;51.146;17.112;2022-11-20T04:57:57;99885.60;;;-5.24
68952;BMP180;56000;51.146;17.112;2022-11-20T05:00:27;99889.00;;;-5.30
68952;BMP180;56000;51.146;17.112;2022-11-20T05:02:56;99891.20;;;-5.30
68952;BMP180;56000;51.146;17.112;2022-11-20T05:05:25;99884.20;;;-5.30
68952;BMP180;56000;51.146;17.112;2022-11-20T05:07:57;99890.20;;;-5.30
68952;BMP180;56000;51.146;17.112;2022-11-20T05:10:26;99883.80;;;-5.24
68952;BMP180;56000;51.146;17.112;2022-11-20T05:12:57;99878.60;;;-5.20
68952;BMP180;56000;51.146;17.112;2022-11-20T05:15:26;99877.40;;;-5.30
68952;BMP180;56000;51.146;17.112;2022-11-20T05:17:56;99873.40;;;-5.30
68952;BMP180;56000;51.146;17.112;2022-11-20T05:20:25;99874.80;;;-5.40
68952;BMP180;56000;51.146;17.112;2022-11-20T05:22:57;99871.60;;;-5.40
68952;BMP180;56000;51.146;17.112;2022-11-20T05:25:26;99863.60;;;-5.40
68952;BMP180;56000;51.146;17.112;2022-11-20T05:27:56;99864.00;;;-5.40
68952;BMP180;56000;51.146;17.112;2022-11-20T05:30:25;99864.60;;;-5.40
68952;BMP180;56000;51.146;17.112;2022-11-20T05:32:54;99861.00;;;-5.40
68952;BMP180;56000;51.146;17.112;2022-11-20T05:35:23;99856.20;;;-5.40
68952;BMP180;56000;51.146;17.112;2022-11-20T05:37:52;99864.60;;;-5.30
68952;BMP180;56000;51.146;17.112;2022-11-20T05:40:21;99867.60;;;-5.30
68952;BMP180;56000;51.146;17.112;2022-11-20T05:42:51;99865.00;;;-5.30
68952;BMP180;56000;51.146;17.112;2022-11-20T05:45:20;99864.60;;;-5.30
68952;BMP180;56000;51.146;17.112;2022-11-20T05:47:49;99863.00;;;-5.30
68952;BMP180;56000;51.146;17.112;2022-11-20T05:50:18;99861.60;;;-5.36
68952;BMP180;56000;51.146;17.112;2022-11-20T05:52:47;99862.00;;;-5.40
68952;BMP180;56000;51.146;17.112;2022-11-20T05:55:17;99861.00;;;-5.40
68952;BMP180;56000;51.146;17.112;2022-11-20T05:57:46;99861.80;;;-5.50
68952;BMP180;56000;51.146;17.112;2022-11-20T06:00:16;99862.20;;;-5.50
68952;BMP180;56000;51.146;17.112;2022-11-20T06:02:46;99856.00;;;-5.50
68952;BMP180;56000;51.146;17.112;2022-11-20T06:05:15;99857.80;;;-5.52
68952;BMP180;56000;51.146;17.112;2022-11-20T06:07:45;99865.40;;;-5.60
68952;BMP180;56000;51.146;17.112;2022-11-20T06:10:14;99867.40;;;-5.60
68952;BMP180;56000;51.146;17.112;2022-11-20T06:12:43;99867.40;;;-5.60
68952;BMP180;56000;51.146;17.112;2022-11-20T06:15:12;99867.40;;;-5.60
68952;BMP180;56000;51.146;17.112;2022-11-20T06:17:41;99858.80;;;-5.60
68952;BMP180;56000;51.146;17.112;2022-11-20T06:20:12;99860.00;;;-5.60
68952;BMP180;56000;51.146;17.112;2022-11-20T06:22:41;99860.00;;;-5.60
68952;BMP180;56000;51.146;17.112;2022-11-20T06:25:10;99856.80;;;-5.60
68952;BMP180;56000;51.146;17.112;2022-11-20T06:27:40;99852.60;;;-5.60
68952;BMP180;56000;51.146;17.112;2022-11-20T06:30:12;99853.20;;;-5.60
68952;BMP180;56000;51.146;17.112;2022-11-20T06:32:41;99854.40;;;-5.56
68952;BMP180;56000;51.146;17.112;2022-11-20T06:35:11;99850.00;;;-5.50
68952;BMP180;56000;51.146;17.112;2022-11-20T06:37:41;99846.20;;;-5.48
68952;BMP180;56000;51.146;17.112;2022-11-20T06:40:13;99845.20;;;-5.40
68952;BMP180;56000;51.146;17.112;2022-11-20T06:42:42;99854.80;;;-5.30
68952;BMP180;56000;51.146;17.112;2022-11-20T06:45:12;99850.00;;;-5.24
68952;BMP180;56000;51.146;17.112;2022-11-20T06:47:41;99841.80;;;-5.20
68952;BMP180;56000;51.146;17.112;2022-11-20T06:50:10;99845.80;;;-5.20
68952;BMP180;56000;51.146;17.112;2022-11-20T06:52:40;99847.20;;;-5.20
68952;BMP180;56000;51.146;17.112;2022-11-20T06:55:12;99848.80;;;-5.10
68952;BMP180;56000;51.146;17.112;2022-11-20T06:57:41;99844.60;;;-5.10
68952;BMP180;56000;51.146;17.112;2022-11-20T07:00:14;99848.20;;;-5.06
68952;BMP180;56000;51.146;17.112;2022-11-20T07:02:43;99855.80;;;-5.00
68952;BMP180;56000;51.146;17.112;2022-11-20T07:05:13;99854.80;;;-4.92
68952;BMP180;56000;51.146;17.112;2022-11-20T07:07:42;99860.20;;;-4.90
68952;BMP180;56000;51.146;17.112;2022-11-20T07:10:12;99858.00;;;-4.80
68952;BMP180;56000;51.146;17.112;2022-11-20T07:12:42;99858.00;;;-4.70
68952;BMP180;56000;51.146;17.112;2022-11-20T07:15:11;99851.20;;;-4.40
68952;BMP180;56000;51.146;17.112;2022-11-20T07:17:40;99855.60;;;-4.04
68952;BMP180;56000;51.146;17.112;2022-11-20T07:22:41;99845.00;;;-3.44
68952;BMP180;56000;51.146;17.112;2022-11-20T07:25:10;99838.80;;;-3.20
68952;BMP180;56000;51.146;17.112;2022-11-20T07:27:39;99839.60;;;-2.90
68952;BMP180;56000;51.146;17.112;2022-11-20T07:30:11;99835.80;;;-2.70
68952;BMP180;56000;51.146;17.112;2022-11-20T07:32:40;99828.00;;;-2.44
68952;BMP180;56000;51.146;17.112;2022-11-20T07:35:10;99826.40;;;-2.30
68952;BMP180;56000;51.146;17.112;2022-11-20T07:37:39;99829.60;;;-2.20
68952;BMP180;56000;51.146;17.112;2022-11-20T07:40:11;99831.80;;;-2.04
68952;BMP180;56000;51.146;17.112;2022-11-20T07:42:48;99826.20;;;-1.90
68952;BMP180;56000;51.146;17.112;2022-11-20T07:45:18;99826.20;;;-1.64
68952;BMP180;56000;51.146;17.112;2022-11-20T07:47:48;99821.20;;;-1.40
68952;BMP180;56000;51.146;17.112;2022-11-20T07:50:18;99818.00;;;-1.10
68952;BMP180;56000;51.146;17.112;2022-11-20T07:52:47;99818.40;;;-0.76
68952;BMP180;56000;51.146;17.112;2022-11-20T07:55:16;99805.40;;;-0.40
68952;BMP180;56000;51.146;17.112;2022-11-20T07:57:46;99802.60;;;-0.10
68952;BMP180;56000;51.146;17.112;2022-11-20T08:00:16;99790.60;;;0.24
68952;BMP180;56000;51.146;17.112;2022-11-20T08:02:46;99792.00;;;0.60
68952;BMP180;56000;51.146;17.112;2022-11-20T08:05:15;99788.20;;;0.98
68952;BMP180;56000;51.146;17.112;2022-11-20T08:07:45;99796.80;;;1.30
68952;BMP180;56000;51.146;17.112;2022-11-20T08:10:15;99789.40;;;1.60
68952;BMP180;56000;51.146;17.112;2022-11-20T08:12:48;99786.20;;;1.90
68952;BMP180;56000;51.146;17.112;2022-11-20T08:15:36;99788.60;;;2.20
68952;BMP180;56000;51.146;17.112;2022-11-20T08:18:08;99785.00;;;2.48
68952;BMP180;56000;51.146;17.112;2022-11-20T08:20:57;99777.20;;;2.90
68952;BMP180;56000;51.146;17.112;2022-11-20T08:23:26;99776.20;;;3.30
68952;BMP180;56000;51.146;17.112;2022-11-20T08:25:56;99782.60;;;3.44
68952;BMP180;56000;51.146;17.112;2022-11-20T08:28:25;99781.40;;;3.50
68952;BMP180;56000;51.146;17.112;2022-11-20T08:30:59;99772.80;;;3.76
68952;BMP180;56000;51.146;17.112;2022-11-20T08:33:29;99765.80;;;4.16
68952;BMP180;56000;51.146;17.112;2022-11-20T08:36:01;99760.60;;;4.52
68952;BMP180;56000;51.146;17.112;2022-11-20T08:38:31;99761.00;;;4.90
68952;BMP180;56000;51.146;17.112;2022-11-20T08:41:02;99758.80;;;5.28
68952;BMP180;56000;51.146;17.112;2022-11-20T08:43:50;99755.60;;;5.60
68952;BMP180;56000;51.146;17.112;2022-11-20T08:46:19;99754.40;;;5.96
68952;BMP180;56000;51.146;17.112;2022-11-20T08:48:49;99746.60;;;6.30
68952;BMP180;56000;51.146;17.112;2022-11-20T08:51:19;99750.80;;;6.50
68952;BMP180;56000;51.146;17.112;2022-11-20T08:53:48;99746.60;;;6.80
68952;BMP180;56000;51.146;17.112;2022-11-20T08:56:17;99745.20;;;7.00
68952;BMP180;56000;51.146;17.112;2022-11-20T08:58:47;99744.00;;;7.30
68952;BMP180;56000;51.146;17.112;2022-11-20T09:01:36;99745.80;;;7.76
68952;BMP180;56000;51.146;17.112;2022-11-20T09:04:05;99740.60;;;8.20
68952;BMP180;56000;51.146;17.112;2022-11-20T09:06:34;99741.60;;;8.50
68952;BMP180;56000;51.146;17.112;2022-11-20T09:09:04;99738.00;;;8.74
68952;BMP180;56000;51.146;17.112;2022-11-20T09:11:46;99734.80;;;9.10
68952;BMP180;56000;51.146;17.112;2022-11-20T09:14:15;99735.60;;;9.60
68952;BMP180;56000;51.146;17.112;2022-11-20T09:16:46;99728.20;;;9.80
68952;BMP180;56000;51.146;17.112;2022-11-20T09:19:15;99729.60;;;10.14
68952;BMP180;56000;51.146;17.112;2022-11-20T09:22:04;99724.80;;;10.68
68952;BMP180;56000;51.146;17.112;2022-11-20T09:24:33;99728.60;;;11.02
68952;BMP180;56000;51.146;17.112;2022-11-20T09:27:06;99729.40;;;11.42
68952;BMP180;56000;51.146;17.112;2022-11-20T09:29:35;99725.60;;;11.52
68952;BMP180;56000;51.146;17.112;2022-11-20T09:32:05;99717.80;;;11.70
68952;BMP180;56000;51.146;17.112;2022-11-20T09:34:34;99716.60;;;12.02
68952;BMP180;56000;51.146;17.112;2022-11-20T09:37:03;99717.60;;;12.14
68952;BMP180;56000;51.146;17.112;2022-11-20T09:39:35;99717.20;;;12.16
68952;BMP180;56000;51.146;17.112;2022-11-20T09:42:31;99712.00;;;12.30
68952;BMP180;56000;51.146;17.112;2022-11-20T09:45:17;99714.60;;;12.40
68952;BMP180;56000;51.146;17.112;2022-11-20T09:48:03;99715.40;;;12.70
68952;BMP180;56000;51.146;17.112;2022-11-20T09:50:38;99710.20;;;13.00
68952;BMP180;56000;51.146;17.112;2022-11-20T09:53:19;99704.00;;;13.40
68952;BMP180;56000;51.146;17.112;2022-11-20T09:55:51;99702.80;;;13.70
68952;BMP180;56000;51.146;17.112;2022-11-20T09:58:25;99697.20;;;14.14
68952;BMP180;56000;51.146;17.112;2022-11-20T10:01:07;99693.00;;;14.50
68952;BMP180;56000;51.146;17.112;2022-11-20T10:03:48;99691.60;;;14.66
68952;BMP180;56000;51.146;17.112;2022-11-20T10:06:23;99690.20;;;15.10
68952;BMP180;56000;51.146;17.112;2022-11-20T10:09:03;99686.40;;;15.28
68952;BMP180;56000;51.146;17.112;2022-11-20T10:11:46;99683.60;;;15.60
68952;BMP180;56000;51.146;17.112;2022-11-20T10:14:28;99685.40;;;16.00
68952;BMP180;56000;51.146;17.112;2022-11-20T10:17:11;99690.60;;;15.90
68952;BMP180;56000;51.146;17.112;2022-11-20T10:19:59;99685.80;;;16.18
68952;BMP180;56000;51.146;17.112;2022-11-20T10:22:44;99682.00;;;16.28
68952;BMP180;56000;51.146;17.112;2022-11-20T10:25:18;99676.80;;;16.62
68952;BMP180;56000;51.146;17.112;2022-11-20T10:28:09;99672.40;;;17.30
68952;BMP180;56000;51.146;17.112;2022-11-20T10:30:42;99673.60;;;17.16
68952;BMP180;56000;51.146;17.112;2022-11-20T10:33:17;99671.20;;;17.00
68952;BMP180;56000;51.146;17.112;2022-11-20T10:35:50;99661.80;;;16.90
68952;BMP180;56000;51.146;17.112;2022-11-20T10:38:24;99660.80;;;16.90
68952;BMP180;56000;51.146;17.112;2022-11-20T10:40:59;99656.80;;;16.70
68952;BMP180;56000;51.146;17.112;2022-11-20T10:43:45;99656.40;;;16.44
68952;BMP180;56000;51.146;17.112;2022-11-20T10:46:18;99661.40;;;16.48
68952;BMP180;56000;51.146;17.112;2022-11-20T10:48:48;99666.00;;;16.74
68952;BMP180;56000;51.146;17.112;2022-11-20T10:51:25;99656.60;;;16.70
68952;BMP180;56000;51.146;17.112;2022-11-20T10:54:06;99657.40;;;16.74
68952;BMP180;56000;51.146;17.112;2022-11-20T10:56:41;99662.60;;;17.66
68952;BMP180;56000;51.146;17.112;2022-11-20T10:59:52;99653.60;;;18.12
68952;BMP180;56000;51.146;17.112;2022-11-20T11:02:32;99650.60;;;17.98
68952;BMP180;56000;51.146;17.112;2022-11-20T11:05:12;99652.00;;;16.94
68952;BMP180;56000;51.146;17.112;2022-11-20T11:07:46;99651.40;;;15.22
68952;BMP180;56000;51.146;17.112;2022-11-20T11:10:22;99652.60;;;13.04
68952;BMP180;56000;51.146;17.112;2022-11-20T11:12:54;99650.60;;;11.12
68952;BMP180;56000;51.146;17.112;2022-11-20T11:15:29;99649.00;;;9.58
68952;BMP180;56000;51.146;17.112;2022-11-20T11:17:59;99645.60;;;8.26
68952;BMP180;56000;51.146;17.112;2022-11-20T11:20:28;99650.20;;;7.22
68952;BMP180;56000;51.146;17.112;2022-11-20T11:22:59;99653.80;;;6.38
68952;BMP180;56000;51.146;17.112;2022-11-20T11:25:31;99655.40;;;5.76
68952;BMP180;56000;51.146;17.112;2022-11-20T11:28:17;99652.40;;;5.08
68952;BMP180;56000;51.146;17.112;2022-11-20T11:30:48;99658.20;;;4.70
68952;BMP180;56000;51.146;17.112;2022-11-20T11:33:22;99652.40;;;4.58
68952;BMP180;56000;51.146;17.112;2022-11-20T11:35:53;99644.20;;;4.30
68952;BMP180;56000;51.146;17.112;2022-11-20T11:38:33;99647.00;;;4.06
68952;BMP180;56000;51.146;17.112;2022-11-20T11:41:04;99640.40;;;3.90
68952;BMP180;56000;51.146;17.112;2022-11-20T11:43:35;99636.20;;;3.70
68952;BMP180;56000;51.146;17.112;2022-11-20T11:46:33;99627.80;;;3.44
68952;BMP180;56000;51.146;17.112;2022-11-20T11:49:17;99623.80;;;3.30
68952;BMP180;56000;51.146;17.112;2022-11-20T11:52:03;99626.20;;;3.20
68952;BMP180;56000;51.146;17.112;2022-11-20T11:54:41;99624.00;;;3.20
68952;BMP180;56000;51.146;17.112;2022-11-20T11:57:20;99625.40;;;3.10
68952;BMP180;56000;51.146;17.112;2022-11-20T12:00:03;99627.80;;;3.10
68952;BMP180;56000;51.146;17.112;2022-11-20T12:02:38;99618.00;;;3.02
68952;BMP180;56000;51.146;17.112;2022-11-20T12:05:20;99619.20;;;3.10
68952;BMP180;56000;51.146;17.112;2022-11-20T12:07:54;99616.60;;;3.10
68952;BMP180;56000;51.146;17.112;2022-11-20T12:10:39;99619.80;;;3.10
68952;BMP180;56000;51.146;17.112;2022-11-20T12:13:36;99614.40;;;3.10
68952;BMP180;56000;51.146;17.112;2022-11-20T12:16:13;99614.60;;;3.10
68952;BMP180;56000;51.146;17.112;2022-11-20T12:18:43;99609.40;;;3.10
68952;BMP180;56000;51.146;17.112;2022-11-20T12:21:20;99608.00;;;3.10
68952;BMP180;56000;51.146;17.112;2022-11-20T12:24:22;99602.40;;;3.12
68952;BMP180;56000;51.146;17.112;2022-11-20T12:27:09;99604.80;;;3.20
68952;BMP180;56000;51.146;17.112;2022-11-20T12:29:51;99597.80;;;3.20
68952;BMP180;56000;51.146;17.112;2022-11-20T12:32:49;99600.20;;;3.20
68952;BMP180;56000;51.146;17.112;2022-11-20T12:35:37;99601.60;;;3.10
68952;BMP180;56000;51.146;17.112;2022-11-20T12:38:31;99602.60;;;3.10
68952;BMP180;56000;51.146;17.112;2022-11-20T13:07:43;99579.20;;;3.74
68952;BMP180;56000;51.146;17.112;2022-11-20T13:10:21;99569.80;;;3.70
68952;BMP180;56000;51.146;17.112;2022-11-20T13:12:56;99568.20;;;3.60
68952;BMP180;56000;51.146;17.112;2022-11-20T13:15:46;99567.00;;;3.40
68952;BMP180;56000;51.146;17.112;2022-11-20T13:18:16;99559.00;;;3.30
68952;BMP180;56000;51.146;17.112;2022-11-20T13:20:47;99555.40;;;3.20
68952;BMP180;56000;51.146;17.112;2022-11-20T13:23:28;99552.00;;;3.16
68952;BMP180;56000;51.146;17.112;2022-11-20T13:26:16;99556.80;;;3.10
68952;BMP180;56000;51.146;17.112;2022-11-20T13:28:59;99540.80;;;3.00
68952;BMP180;56000;51.146;17.112;2022-11-20T13:31:33;99538.40;;;2.90
68952;BMP180;56000;51.146;17.112;2022-11-20T13:34:05;99533.60;;;2.80
68952;BMP180;56000;51.146;17.112;2022-11-20T13:36:36;99529.80;;;2.80
68952;BMP180;56000;51.146;17.112;2022-11-20T13:39:08;99530.40;;;2.70
68952;BMP180;56000;51.146;17.112;2022-11-20T13:41:38;99533.20;;;2.70
68952;BMP180;56000;51.146;17.112;2022-11-20T13:44:15;99538.40;;;2.70
68952;BMP180;56000;51.146;17.112;2022-11-20T13:46:51;99537.40;;;2.60
68952;BMP180;56000;51.146;17.112;2022-11-20T13:49:26;99532.40;;;2.60
68952;BMP180;56000;51.146;17.112;2022-11-20T13:52:08;99531.00;;;2.50
68952;BMP180;56000;51.146;17.112;2022-11-20T13:55:02;99531.40;;;2.50
68952;BMP180;56000;51.146;17.112;2022-11-20T14:00:28;99524.80;;;2.40
68952;BMP180;56000;51.146;17.112;2022-11-20T14:03:18;99523.00;;;2.30
68952;BMP180;56000;51.146;17.112;2022-11-20T14:06:19;99519.00;;;2.26
68952;BMP180;56000;51.146;17.112;2022-11-20T14:08:52;99517.20;;;2.20
68952;BMP180;56000;51.146;17.112;2022-11-20T14:11:24;99519.60;;;2.12
68952;BMP180;56000;51.146;17.112;2022-11-20T14:14:00;99511.80;;;2.10
68952;BMP180;56000;51.146;17.112;2022-11-20T14:16:34;99509.80;;;2.00
68952;BMP180;56000;51.146;17.112;2022-11-20T14:29:40;99512.40;;;1.72
68952;BMP180;56000;51.146;17.112;2022-11-20T14:32:16;99511.00;;;1.70
68952;BMP180;56000;51.146;17.112;2022-11-20T14:34:50;99506.60;;;1.60
68952;BMP180;56000;51.146;17.112;2022-11-20T14:37:26;99505.40;;;1.60
68952;BMP180;56000;51.146;17.112;2022-11-20T14:40:00;99502.40;;;1.50
68952;BMP180;56000;51.146;17.112;2022-11-20T14:42:33;99499.60;;;1.40
68952;BMP180;56000;51.146;17.112;2022-11-20T14:45:11;99505.20;;;1.38
68952;BMP180;56000;51.146;17.112;2022-11-20T14:47:44;99506.00;;;1.30
68952;BMP180;56000;51.146;17.112;2022-11-20T14:50:23;99498.40;;;1.20
68952;BMP180;56000;51.146;17.112;2022-11-20T14:53:01;99499.00;;;1.10
68952;BMP180;56000;51.146;17.112;2022-11-20T14:55:36;99494.40;;;1.10
68952;BMP180;56000;51.146;17.112;2022-11-20T14:58:22;99493.00;;;1.00
68952;BMP180;56000;51.146;17.112;2022-11-20T15:01:00;99494.00;;;0.96
68952;BMP180;56000;51.146;17.112;2022-11-20T15:03:38;99485.60;;;0.90
68952;BMP180;56000;51.146;17.112;2022-11-20T15:06:13;99486.80;;;0.90
68952;BMP180;56000;51.146;17.112;2022-11-20T15:08:55;99485.60;;;0.80
68952;BMP180;56000;51.146;17.112;2022-11-20T15:11:31;99489.60;;;0.80
68952;BMP180;56000;51.146;17.112;2022-11-20T15:14:08;99491.40;;;0.70
68952;BMP180;56000;51.146;17.112;2022-11-20T15:16:41;99490.80;;;0.60
68952;BMP180;56000;51.146;17.112;2022-11-20T15:19:19;99488.00;;;0.52